Главная страница
METAR-TAF:

METAR-TAF

Аэропорты :

Уагадугу, Буркина-Фасо

широта: 12-21N, долгота: 001-31W, высота над уровнем моря: 316 м

Текущие метеонаблюдения

Эта сводка был подготовлена 49 минут назад, в 01:00 UTC
Ветер 4 Узел от южный-юго-западный
Температура 26°C
Влажность 84%
Давление 1015 hPa
Видимость 10 км и более
Отдельные облака на высоте 2000 фута

METAR: DFFD 150100Z 21004KT 9999 SCT020 26/23 Q1015 NOSIG

Время: 01:49 (01:49 UTC)

Прогноз

Эта сводка был подготовлена 2 часа и 49 минут назад, в 23:00 UTC
Прогноз действительный с 15-го 00 UTC до 16-го 06 UTC
Ветер 8 Узел от южный-юго-западный
Видимость 10 км и более
Отдельные облака на высоте 2000 фута
временами
С 15-го 14 UTC до 15-го 24 UTC
Видимость: 4000 м
Отдельные облака на высоте 2000 фута
небольшая облачность на высоте 3300 фута, Кучево-дождевые.
гроза, дождь

TAF: DFFD 142300Z 1500/1606 20008KT 9999 SCT020 TEMPO 1514/1524 4000 TSRA SCT020 FEW033CB

Метеонаблюдения и прогнозы для более 4000 аэропортов (сводки METAR и TAF).

Имеющиеся станции представлены на карте желтыми и красными точками.

Чтобы увидеть название станции, наведите на нее мышь.

Затем щелкните, чтобы увидеть метеонаблюдения и метеопрогнозы.

Управление картой: чтобы увеличить масштаб, щелкните зеленые кнопки с черным крестиком; чтобы уменьшить масштаб, щелкните зеленую кнопку с тире; для просмотра соседних карт щелкайте зеленые стрелки.


METAR-TAF: